KFNT/FNT METAR and TAF weather

Enter ICAO airport designator
Station Type Date Time Source
KFNT METAR 2020/01/20 18:53 UTC NOAA

KFNT 201853Z 35012KT 10SM CLR M04/M12 A3053 RMK AO2 SLP354 T10441122


Station Type Date Time Source
KFNT Decoded METAR 2020/01/20 18:53 UTC NOAA

FLINT BISHOP INTERNATIONAL AIRPORT, MI, United States (KFNT) 42-58N 83-45W 233M
Jan 20, 2020 - 01:53 PM EST / 2020.01.20 1853 UTC
Wind: from the N (350 degrees) at 14 MPH (12 KT):0
Visibility: 10 mile(s):0
Sky conditions: clear
Temperature: 24.1 F (-4.4 C)
Windchill: 12 F (-11 C):1
Dew Point: 10.0 F (-12.2 C)
Relative Humidity: 54%
Pressure (altimeter): 30.53 in. Hg (1033 hPa)
ob: KFNT 201853Z 35012KT 10SM CLR M04/M12 A3053 RMK AO2 SLP354 T10441122
cycle: 19

Station Type Date Time Source
KFNT TAF 2020/01/20 18:22 UTC NOAA

TAF KFNT 201720Z 2018/2118 34005KT P6SM FEW035
FM202200 28004KT P6SM OVC028
FM210700 28003KT P6SM FEW025

Example: see airport list